Time;durP1;ratioP1;P1;durP2;ratioP2;P2;SDS_P1;SDS_P2;PMS_P1;PMS_P2;Temp;Humidity;BMP_temperature;BMP_pressure;BME280_temperature;BME280_humidity;BME280_pressure;Samples;Min_cycle;Max_cycle;Signal;HPM_P1;HPM_P2
2021/08/16 00:01:40;;;;;;;11.20;2.33;;;;;;;;;;5019081;28;20084;-79
2021/08/16 00:04:05;;;;;;;10.23;2.42;;;;;;;;;;5022213;28;20089;-79
2021/08/16 00:06:30;;;;;;;9.27;2.30;;;;;;;;;;5024479;28;20029;-79
2021/08/16 00:08:56;;;;;;;13.50;2.78;;;;;;;;;;5032871;28;20068;-80
2021/08/16 00:11:22;;;;;;;12.52;2.70;;;;;;;;;;5015539;28;20068;-79
2021/08/16 00:13:48;;;;;;;13.88;2.72;;;;;;;;;;5035852;28;20401;-80
2021/08/16 00:16:13;;;;;;;11.48;2.55;;;;;;;;;;4996120;28;20032;-79
2021/08/16 00:18:38;;;;;;;10.52;2.60;;;;;;;;;;5027300;28;21521;-79
2021/08/16 00:21:04;;;;;;;9.30;2.40;;;;;;;;;;5032391;28;20035;-80
2021/08/16 00:23:31;;;;;;;11.80;2.17;;;;;;;;;;5030368;28;20465;-79
2021/08/16 00:25:56;;;;;;;10.50;2.45;;;;;;;;;;5027465;28;20034;-79
2021/08/16 00:28:22;;;;;;;8.32;2.38;;;;;;;;;;5029033;28;20397;-80
2021/08/16 00:30:47;;;;;;;9.95;2.78;;;;;;;;;;5028927;28;20052;-80
2021/08/16 00:33:13;;;;;;;12.52;2.80;;;;;;;;;;5031224;28;20034;-80
2021/08/16 00:35:38;;;;;;;9.85;2.65;;;;;;;;;;5041520;28;20040;-80
2021/08/16 00:38:04;;;;;;;7.47;2.20;;;;;;;;;;5027676;28;20033;-80
2021/08/16 00:40:31;;;;;;;12.82;2.70;;;;;;;;;;5029568;28;20104;-80
2021/08/16 00:42:56;;;;;;;10.80;2.67;;;;;;;;;;5014734;28;20053;-80
2021/08/16 00:45:24;;;;;;;12.90;2.75;;;;;;;;;;5028584;28;20033;-80
2021/08/16 00:47:49;;;;;;;9.82;2.70;;;;;;;;;;5014487;28;20504;-80
2021/08/16 00:50:15;;;;;;;10.10;2.22;;;;;;;;;;5031716;28;20033;-80
2021/08/16 00:52:42;;;;;;;8.43;2.30;;;;;;;;;;5032516;28;20270;-80
2021/08/16 00:55:11;;;;;;;10.90;2.17;;;;;;;;;;5032717;28;20052;-80
2021/08/16 00:57:37;;;;;;;11.00;2.70;;;;;;;;;;5024107;28;20045;-80
2021/08/16 01:00:07;;;;;;;8.75;2.22;;;;;;;;;;5031490;28;20091;-79
2021/08/16 01:02:34;;;;;;;10.90;2.40;;;;;;;;;;5019813;28;20037;-79
2021/08/16 01:05:05;;;;;;;9.88;2.50;;;;;;;;;;5028803;28;20028;-80
2021/08/16 01:07:35;;;;;;;11.65;2.38;;;;;;;;;;5026724;28;20048;-80
2021/08/16 01:10:01;;;;;;;9.50;2.50;;;;;;;;;;5025386;28;20152;-80
2021/08/16 01:12:36;;;;;;;11.80;2.72;;;;;;;;;;5019305;28;20141;-80
2021/08/16 01:15:05;;;;;;;11.82;2.65;;;;;;;;;;5031113;28;20490;-80
2021/08/16 01:17:31;;;;;;;11.77;2.65;;;;;;;;;;5028125;28;20022;-80
2021/08/16 01:19:57;;;;;;;17.83;2.70;;;;;;;;;;5031818;28;20037;-79
2021/08/16 01:22:23;;;;;;;13.02;2.38;;;;;;;;;;5027353;28;20029;-79
2021/08/16 01:24:48;;;;;;;9.68;2.40;;;;;;;;;;5031125;28;20061;-80
2021/08/16 01:27:14;;;;;;;11.27;2.50;;;;;;;;;;5030274;28;20128;-79
2021/08/16 01:29:40;;;;;;;12.38;2.65;;;;;;;;;;5010414;28;20087;-80
2021/08/16 01:32:07;;;;;;;10.68;2.38;;;;;;;;;;5026983;28;20373;-81
2021/08/16 01:34:33;;;;;;;14.48;3.40;;;;;;;;;;5027169;28;20017;-80
2021/08/16 01:36:59;;;;;;;10.40;2.30;;;;;;;;;;5011804;28;20036;-80
2021/08/16 01:39:25;;;;;;;10.55;2.33;;;;;;;;;;5029641;28;20040;-80
2021/08/16 01:41:51;;;;;;;12.40;2.67;;;;;;;;;;5028698;28;20022;-80
2021/08/16 01:44:21;;;;;;;10.77;2.50;;;;;;;;;;5021452;28;20032;-80
2021/08/16 01:46:47;;;;;;;12.43;2.47;;;;;;;;;;5026260;28;20075;-80
2021/08/16 01:49:13;;;;;;;13.23;2.85;;;;;;;;;;5026203;28;20030;-80
2021/08/16 01:51:39;;;;;;;12.15;2.70;;;;;;;;;;5018104;28;20447;-80
2021/08/16 01:54:11;;;;;;;10.27;2.78;;;;;;;;;;5018039;28;20032;-79
2021/08/16 01:56:38;;;;;;;11.63;2.50;;;;;;;;;;5028464;28;20034;-80
2021/08/16 01:59:04;;;;;;;10.55;2.13;;;;;;;;;;5024126;28;20044;-80
2021/08/16 02:01:30;;;;;;;9.10;2.25;;;;;;;;;;5027901;28;20038;-80
2021/08/16 02:03:55;;;;;;;10.52;2.35;;;;;;;;;;5027998;28;20029;-80
2021/08/16 02:06:21;;;;;;;12.05;2.28;;;;;;;;;;5031276;28;20049;-80
2021/08/16 02:08:46;;;;;;;10.77;2.50;;;;;;;;;;5009278;28;20041;-80
2021/08/16 02:11:12;;;;;;;12.80;2.58;;;;;;;;;;5026004;28;20473;-79
2021/08/16 02:13:37;;;;;;;16.25;2.60;;;;;;;;;;5026753;28;20052;-79
2021/08/16 02:16:04;;;;;;;9.05;2.40;;;;;;;;;;5029421;28;20025;-80
2021/08/16 02:18:30;;;;;;;14.38;2.65;;;;;;;;;;5031020;28;20033;-80
2021/08/16 02:20:55;;;;;;;11.10;2.13;;;;;;;;;;5026315;28;20032;-80
2021/08/16 02:23:20;;;;;;;9.43;2.58;;;;;;;;;;5027688;28;20120;-80
2021/08/16 02:25:46;;;;;;;9.73;2.47;;;;;;;;;;5026095;28;20394;-80
2021/08/16 02:28:16;;;;;;;9.93;2.42;;;;;;;;;;5025823;28;20037;-80
2021/08/16 02:30:42;;;;;;;12.00;3.17;;;;;;;;;;4991561;28;20030;-80
2021/08/16 02:33:07;;;;;;;11.38;2.47;;;;;;;;;;5031683;28;20033;-80
2021/08/16 02:35:32;;;;;;;11.27;2.50;;;;;;;;;;5027615;28;20040;-80
2021/08/16 02:37:58;;;;;;;11.15;2.90;;;;;;;;;;5020892;28;20477;-80
2021/08/16 02:40:24;;;;;;;13.10;2.67;;;;;;;;;;5029502;28;20041;-80
2021/08/16 02:42:50;;;;;;;12.60;2.72;;;;;;;;;;5009563;28;20033;-80
2021/08/16 02:45:15;;;;;;;10.90;2.40;;;;;;;;;;5029479;28;20103;-80
2021/08/16 02:47:41;;;;;;;10.13;2.10;;;;;;;;;;5030927;28;20140;-80
2021/08/16 02:50:07;;;;;;;14.95;3.28;;;;;;;;;;5027550;28;20426;-80
2021/08/16 02:52:32;;;;;;;14.25;2.53;;;;;;;;;;5028380;28;20063;-80
2021/08/16 02:54:59;;;;;;;11.43;2.50;;;;;;;;;;5026623;28;20045;-80
2021/08/16 02:57:25;;;;;;;7.45;2.80;;;;;;;;;;5025946;28;20029;-80
2021/08/16 02:59:50;;;;;;;9.80;2.40;;;;;;;;;;5024655;28;20036;-80
2021/08/16 03:02:16;;;;;;;11.90;2.40;;;;;;;;;;5027435;28;20032;-80
2021/08/16 03:04:41;;;;;;;10.57;2.55;;;;;;;;;;5029868;28;20041;-80
2021/08/16 03:07:07;;;;;;;11.65;3.08;;;;;;;;;;5010809;28;20039;-79
2021/08/16 03:09:32;;;;;;;11.75;2.63;;;;;;;;;;5026602;28;20025;-80
2021/08/16 03:11:58;;;;;;;12.73;2.88;;;;;;;;;;5025036;28;20172;-80
2021/08/16 03:14:24;;;;;;;11.38;2.90;;;;;;;;;;5030283;28;20056;-80
2021/08/16 03:16:49;;;;;;;10.73;3.22;;;;;;;;;;5029144;28;20060;-80
2021/08/16 03:19:15;;;;;;;12.15;2.97;;;;;;;;;;5007962;28;20033;-80
2021/08/16 03:21:40;;;;;;;11.15;3.10;;;;;;;;;;5028951;28;20041;-80
2021/08/16 03:24:07;;;;;;;11.45;3.28;;;;;;;;;;5014197;28;20567;-80
2021/08/16 03:26:32;;;;;;;12.07;3.15;;;;;;;;;;5025902;28;20054;-80
2021/08/16 03:28:58;;;;;;;8.77;3.03;;;;;;;;;;5006653;28;20390;-80
2021/08/16 03:31:23;;;;;;;13.05;3.55;;;;;;;;;;5011799;28;20413;-80
2021/08/16 03:33:49;;;;;;;10.75;3.13;;;;;;;;;;5011590;28;20034;-80
2021/08/16 03:36:14;;;;;;;11.60;3.22;;;;;;;;;;5029728;28;20025;-80
2021/08/16 03:38:39;;;;;;;11.07;3.17;;;;;;;;;;5026749;28;20045;-80
2021/08/16 03:41:06;;;;;;;11.63;3.40;;;;;;;;;;5032146;28;20094;-80
2021/08/16 03:43:32;;;;;;;12.05;4.00;;;;;;;;;;5013234;28;20049;-80
2021/08/16 03:45:58;;;;;;;8.27;3.60;;;;;;;;;;5031729;28;20041;-80
2021/08/16 03:48:24;;;;;;;9.88;3.80;;;;;;;;;;5031299;28;20029;-80
2021/08/16 03:50:49;;;;;;;12.90;3.45;;;;;;;;;;5010509;28;20032;-80
2021/08/16 03:53:15;;;;;;;12.85;3.30;;;;;;;;;;5013023;28;20064;-80
2021/08/16 03:55:40;;;;;;;12.55;3.47;;;;;;;;;;5034123;28;20041;-80
2021/08/16 03:58:06;;;;;;;12.27;3.92;;;;;;;;;;5014472;28;20055;-80
2021/08/16 04:00:32;;;;;;;12.63;3.60;;;;;;;;;;5031335;28;20112;-79
2021/08/16 04:02:58;;;;;;;10.80;3.50;;;;;;;;;;5030081;28;20037;-80
2021/08/16 04:05:24;;;;;;;10.90;3.63;;;;;;;;;;5036398;28;20034;-80
2021/08/16 04:07:49;;;;;;;11.75;4.13;;;;;;;;;;5026762;28;20091;-79
2021/08/16 04:10:15;;;;;;;11.43;4.05;;;;;;;;;;5033007;28;20025;-79
2021/08/16 04:12:42;;;;;;;14.88;4.32;;;;;;;;;;5015028;28;20069;-80
2021/08/16 04:15:11;;;;;;;10.95;4.35;;;;;;;;;;5026199;28;20042;-80
2021/08/16 04:17:36;;;;;;;13.52;4.78;;;;;;;;;;5028170;28;20037;-79
2021/08/16 04:20:03;;;;;;;13.40;4.47;;;;;;;;;;5032403;28;20045;-80
2021/08/16 04:22:28;;;;;;;12.68;4.45;;;;;;;;;;5030902;28;20029;-80
2021/08/16 04:24:54;;;;;;;14.00;5.20;;;;;;;;;;5028129;28;20037;-80
2021/08/16 04:27:19;;;;;;;11.68;4.93;;;;;;;;;;5016249;28;20025;-80
2021/08/16 04:29:44;;;;;;;11.88;4.78;;;;;;;;;;5028533;28;20109;-80
2021/08/16 04:32:10;;;;;;;11.80;4.95;;;;;;;;;;4998663;28;20029;-80
2021/08/16 04:34:35;;;;;;;12.93;5.72;;;;;;;;;;5012631;28;20029;-79
2021/08/16 04:37:01;;;;;;;14.80;5.45;;;;;;;;;;5033953;28;20413;-80
2021/08/16 04:39:26;;;;;;;11.02;5.25;;;;;;;;;;5026408;28;20033;-81
2021/08/16 04:41:51;;;;;;;10.68;5.72;;;;;;;;;;5013134;28;20036;-80
2021/08/16 04:44:17;;;;;;;14.77;6.20;;;;;;;;;;5025567;28;20177;-80
2021/08/16 04:46:42;;;;;;;12.60;6.07;;;;;;;;;;5022754;28;20034;-80
2021/08/16 04:49:08;;;;;;;15.50;6.18;;;;;;;;;;5028787;28;20045;-80
2021/08/16 04:51:33;;;;;;;15.05;7.10;;;;;;;;;;5022843;28;20482;-80
2021/08/16 04:53:59;;;;;;;11.73;6.00;;;;;;;;;;5033935;28;20104;-79
2021/08/16 04:56:24;;;;;;;16.40;6.50;;;;;;;;;;5011378;28;20500;-80
2021/08/16 04:58:49;;;;;;;13.43;7.05;;;;;;;;;;5026751;28;20044;-80
2021/08/16 05:01:15;;;;;;;12.18;6.55;;;;;;;;;;4998250;28;20033;-79
2021/08/16 05:03:40;;;;;;;16.63;6.65;;;;;;;;;;5031042;28;20033;-80
2021/08/16 05:06:07;;;;;;;12.82;6.93;;;;;;;;;;5028846;28;20421;-80
2021/08/16 05:08:35;;;;;;;13.77;7.20;;;;;;;;;;5025868;28;20120;-80
2021/08/16 05:11:00;;;;;;;12.77;7.05;;;;;;;;;;5028824;28;20033;-79
2021/08/16 05:13:26;;;;;;;12.88;7.05;;;;;;;;;;5014891;28;20041;-80
2021/08/16 05:15:51;;;;;;;16.48;7.72;;;;;;;;;;5023495;28;20057;-80
2021/08/16 05:18:17;;;;;;;14.07;8.00;;;;;;;;;;5026843;28;20421;-80
2021/08/16 05:20:42;;;;;;;12.40;7.22;;;;;;;;;;5030771;28;20128;-79
2021/08/16 05:23:08;;;;;;;15.38;7.47;;;;;;;;;;5022965;28;20057;-80
2021/08/16 05:25:33;;;;;;;15.43;7.65;;;;;;;;;;5026808;28;20366;-79
2021/08/16 05:27:58;;;;;;;17.00;7.88;;;;;;;;;;4996744;28;20049;-80
2021/08/16 05:30:24;;;;;;;15.90;8.00;;;;;;;;;;5027001;28;20088;-80
2021/08/16 05:32:50;;;;;;;16.17;8.45;;;;;;;;;;5030091;28;20060;-80
2021/08/16 05:35:17;;;;;;;16.95;8.68;;;;;;;;;;5030762;28;20528;-80
2021/08/16 05:37:42;;;;;;;17.27;8.90;;;;;;;;;;5007637;28;20163;-80
2021/08/16 05:40:09;;;;;;;14.02;8.75;;;;;;;;;;5030673;28;20112;-80
2021/08/16 05:42:34;;;;;;;18.75;8.95;;;;;;;;;;5012202;28;20090;-80
2021/08/16 05:45:02;;;;;;;16.00;9.10;;;;;;;;;;5033156;28;20033;-80
2021/08/16 05:47:27;;;;;;;18.05;9.00;;;;;;;;;;5029212;28;20029;-80
2021/08/16 05:49:53;;;;;;;17.83;9.07;;;;;;;;;;5015300;28;20476;-80
2021/08/16 05:52:19;;;;;;;14.68;9.40;;;;;;;;;;5028304;28;20040;-79
2021/08/16 05:54:45;;;;;;;15.75;9.52;;;;;;;;;;5036249;28;20427;-80
2021/08/16 05:57:10;;;;;;;17.55;9.57;;;;;;;;;;5031858;28;20064;-80
2021/08/16 05:59:36;;;;;;;13.75;9.50;;;;;;;;;;5030956;28;20051;-80
2021/08/16 06:02:01;;;;;;;17.42;9.63;;;;;;;;;;5012215;28;20065;-80
2021/08/16 06:04:28;;;;;;;15.85;9.60;;;;;;;;;;4992394;28;20385;-80
2021/08/16 06:06:53;;;;;;;17.77;10.38;;;;;;;;;;5029303;28;20039;-80
2021/08/16 06:09:18;;;;;;;16.75;9.32;;;;;;;;;;5027041;28;20112;-79
2021/08/16 06:11:44;;;;;;;17.23;9.52;;;;;;;;;;5030144;28;20033;-80
2021/08/16 06:14:09;;;;;;;18.33;10.40;;;;;;;;;;5026828;28;20452;-79
2021/08/16 06:16:36;;;;;;;15.95;9.82;;;;;;;;;;5026363;28;20044;-80
2021/08/16 06:19:02;;;;;;;17.55;10.48;;;;;;;;;;5028935;28;20127;-80
2021/08/16 06:21:27;;;;;;;14.85;9.63;;;;;;;;;;5023763;28;20061;-80
2021/08/16 06:23:53;;;;;;;15.55;10.07;;;;;;;;;;5024678;28;20034;-80
2021/08/16 06:26:18;;;;;;;13.15;9.98;;;;;;;;;;5013793;28;20060;-80
2021/08/16 06:28:43;;;;;;;15.13;10.35;;;;;;;;;;4996173;28;20400;-79
2021/08/16 06:31:09;;;;;;;14.40;10.00;;;;;;;;;;5012772;28;20037;-80
2021/08/16 06:33:40;;;;;;;15.00;11.18;;;;;;;;;;5025537;28;20034;-80
2021/08/16 06:36:06;;;;;;;17.70;11.48;;;;;;;;;;5015630;28;20033;-80
2021/08/16 06:38:32;;;;;;;15.65;10.70;;;;;;;;;;5008692;28;20030;-79
2021/08/16 06:40:59;;;;;;;17.67;11.73;;;;;;;;;;5032342;28;20120;-79
2021/08/16 06:43:26;;;;;;;20.88;11.57;;;;;;;;;;5035041;28;20512;-79
2021/08/16 06:45:52;;;;;;;16.42;11.63;;;;;;;;;;5027166;28;20060;-78
2021/08/16 06:48:18;;;;;;;17.48;11.93;;;;;;;;;;5018702;28;20033;-78
2021/08/16 06:50:44;;;;;;;16.95;11.90;;;;;;;;;;5036351;28;20032;-79
2021/08/16 06:53:13;;;;;;;18.20;12.05;;;;;;;;;;5029255;28;20025;-78
2021/08/16 06:55:42;;;;;;;22.23;12.30;;;;;;;;;;5018778;28;20078;-79
2021/08/16 06:58:08;;;;;;;17.08;11.48;;;;;;;;;;5036803;28;20029;-79
2021/08/16 07:00:34;;;;;;;16.08;11.68;;;;;;;;;;5031223;28;20072;-79
2021/08/16 07:02:59;;;;;;;18.83;11.43;;;;;;;;;;5029499;28;21021;-79
2021/08/16 07:05:25;;;;;;;17.75;11.35;;;;;;;;;;5012897;28;20424;-79
2021/08/16 07:07:52;;;;;;;15.40;11.10;;;;;;;;;;5031948;28;20108;-79
2021/08/16 07:10:21;;;;;;;17.30;11.30;;;;;;;;;;5012364;28;20034;-79
2021/08/16 07:12:47;;;;;;;16.00;10.50;;;;;;;;;;5026317;28;20058;-79
2021/08/16 07:15:13;;;;;;;13.65;10.95;;;;;;;;;;5037336;28;20033;-79
2021/08/16 07:17:38;;;;;;;17.88;11.27;;;;;;;;;;5009750;28;20029;-79
2021/08/16 07:20:05;;;;;;;12.57;10.27;;;;;;;;;;5016295;28;20037;-79
2021/08/16 07:22:30;;;;;;;12.77;10.02;;;;;;;;;;5024546;28;20120;-79
2021/08/16 07:24:56;;;;;;;12.07;8.18;;;;;;;;;;5041274;28;20033;-79
2021/08/16 07:27:21;;;;;;;8.82;6.45;;;;;;;;;;5023375;28;20037;-79
2021/08/16 07:29:47;;;;;;;7.82;5.28;;;;;;;;;;5020003;28;20358;-79
2021/08/16 07:32:13;;;;;;;5.28;3.97;;;;;;;;;;5027575;28;20077;-79
2021/08/16 07:34:38;;;;;;;6.22;3.95;;;;;;;;;;5031908;28;20060;-79
2021/08/16 07:37:04;;;;;;;7.00;5.03;;;;;;;;;;5027407;28;20044;-78
2021/08/16 07:39:30;;;;;;;6.88;4.55;;;;;;;;;;5033478;28;20037;-79
2021/08/16 07:41:56;;;;;;;6.47;4.93;;;;;;;;;;5028894;28;20088;-78
2021/08/16 07:44:21;;;;;;;7.55;4.63;;;;;;;;;;5035220;28;20045;-79
2021/08/16 07:46:47;;;;;;;5.38;4.22;;;;;;;;;;5025740;28;20163;-78
2021/08/16 07:49:12;;;;;;;7.15;3.88;;;;;;;;;;5039200;28;20053;-78
2021/08/16 07:51:38;;;;;;;5.05;2.80;;;;;;;;;;5030593;28;20107;-79
2021/08/16 07:54:03;;;;;;;6.65;2.60;;;;;;;;;;5035283;28;20029;-79
2021/08/16 07:56:29;;;;;;;5.45;2.38;;;;;;;;;;5030250;28;20072;-78
2021/08/16 07:58:54;;;;;;;4.75;2.42;;;;;;;;;;5037545;28;20041;-79
2021/08/16 08:01:20;;;;;;;7.07;2.55;;;;;;;;;;5002699;28;20029;-79
2021/08/16 08:03:45;;;;;;;8.82;3.28;;;;;;;;;;5029111;28;20048;-79
2021/08/16 08:06:10;;;;;;;10.15;2.83;;;;;;;;;;5018784;28;20033;-79
2021/08/16 08:08:36;;;;;;;6.00;2.40;;;;;;;;;;5036180;28;20191;-79
2021/08/16 08:11:01;;;;;;;6.28;2.50;;;;;;;;;;5032464;28;20109;-79
2021/08/16 08:13:27;;;;;;;4.45;2.33;;;;;;;;;;5027462;28;20061;-79
2021/08/16 08:15:53;;;;;;;8.18;2.70;;;;;;;;;;5028310;28;20553;-79
2021/08/16 08:18:18;;;;;;;4.47;2.10;;;;;;;;;;5033473;28;20033;-79
2021/08/16 08:20:43;;;;;;;4.22;1.98;;;;;;;;;;5026471;28;20072;-79
2021/08/16 08:23:09;;;;;;;4.45;1.98;;;;;;;;;;4997198;28;20037;-79
2021/08/16 08:25:35;;;;;;;5.05;2.22;;;;;;;;;;5033178;28;20065;-79
2021/08/16 08:28:01;;;;;;;4.93;2.15;;;;;;;;;;5030086;28;20116;-79
2021/08/16 08:30:27;;;;;;;3.67;2.03;;;;;;;;;;5019243;28;20034;-79
2021/08/16 08:32:56;;;;;;;5.18;2.08;;;;;;;;;;5035493;28;20036;-79
2021/08/16 08:35:23;;;;;;;4.55;2.00;;;;;;;;;;5034553;28;20033;-79
2021/08/16 08:37:49;;;;;;;7.55;2.40;;;;;;;;;;4999304;28;20497;-79
2021/08/16 08:40:15;;;;;;;5.72;2.38;;;;;;;;;;5030752;28;20033;-79
2021/08/16 08:42:42;;;;;;;5.15;2.80;;;;;;;;;;5046068;28;20045;-79
2021/08/16 08:45:09;;;;;;;6.07;2.50;;;;;;;;;;5037721;28;20503;-79
2021/08/16 08:47:35;;;;;;;5.38;2.55;;;;;;;;;;5022960;28;20049;-78
2021/08/16 08:50:03;;;;;;;4.85;2.80;;;;;;;;;;5036915;28;20063;-79
2021/08/16 08:52:29;;;;;;;5.85;3.00;;;;;;;;;;5040772;28;20025;-79
2021/08/16 08:54:56;;;;;;;7.45;3.25;;;;;;;;;;5039819;28;20040;-79
2021/08/16 08:57:21;;;;;;;7.88;3.53;;;;;;;;;;5033618;28;20088;-79
2021/08/16 08:59:47;;;;;;;5.82;3.13;;;;;;;;;;5028400;28;20029;-79
2021/08/16 09:02:14;;;;;;;9.02;3.42;;;;;;;;;;5036160;28;20575;-79
2021/08/16 09:04:53;;;;;;;6.45;3.33;;;;;;;;;;5033610;28;20041;-79
2021/08/16 09:07:33;;;;;;;8.20;3.25;;;;;;;;;;5034796;28;20373;-79
2021/08/16 09:09:58;;;;;;;7.47;3.13;;;;;;;;;;5017569;28;20025;-79
2021/08/16 09:12:32;;;;;;;8.77;3.50;;;;;;;;;;5036770;28;20049;-80
2021/08/16 09:14:58;;;;;;;6.88;3.42;;;;;;;;;;5051308;28;20034;-79
2021/08/16 09:17:31;;;;;;;10.23;3.40;;;;;;;;;;5033176;28;20060;-79
2021/08/16 09:19:58;;;;;;;8.13;3.17;;;;;;;;;;5030300;28;20115;-79
2021/08/16 09:22:33;;;;;;;7.35;3.50;;;;;;;;;;5022727;28;20045;-80
2021/08/16 09:25:10;;;;;;;7.88;3.67;;;;;;;;;;5035415;28;20109;-79
2021/08/16 09:27:46;;;;;;;8.80;3.40;;;;;;;;;;5026964;28;20049;-79
2021/08/16 09:30:13;;;;;;;8.57;3.35;;;;;;;;;;5032264;28;20120;-80
2021/08/16 09:32:40;;;;;;;5.13;2.92;;;;;;;;;;5028190;28;20032;-79
2021/08/16 09:35:14;;;;;;;7.97;3.38;;;;;;;;;;5021286;28;20076;-79
2021/08/16 09:37:40;;;;;;;4.97;3.00;;;;;;;;;;5029760;28;20063;-79
2021/08/16 09:40:15;;;;;;;7.53;3.70;;;;;;;;;;5021795;28;20036;-79
2021/08/16 09:42:43;;;;;;;9.30;4.00;;;;;;;;;;5041541;28;20026;-79
2021/08/16 09:45:11;;;;;;;8.10;3.67;;;;;;;;;;5018112;28;20053;-79
2021/08/16 09:47:46;;;;;;;6.32;3.35;;;;;;;;;;5023897;28;20092;-79
2021/08/16 09:50:12;;;;;;;8.07;3.92;;;;;;;;;;5030735;28;20040;-79
2021/08/16 09:52:39;;;;;;;12.57;4.93;;;;;;;;;;5030683;28;20065;-80
2021/08/16 09:55:05;;;;;;;10.23;4.32;;;;;;;;;;5007203;28;20417;-79
2021/08/16 09:57:32;;;;;;;8.52;4.07;;;;;;;;;;5010393;28;20140;-79
2021/08/16 09:59:58;;;;;;;9.55;4.10;;;;;;;;;;5023453;28;20036;-79
2021/08/16 10:02:27;;;;;;;8.60;4.50;;;;;;;;;;5024553;28;20038;-80
2021/08/16 10:04:57;;;;;;;9.55;4.30;;;;;;;;;;5024159;28;20098;-79
2021/08/16 10:07:26;;;;;;;8.55;4.10;;;;;;;;;;5022641;28;20420;-79
2021/08/16 10:09:56;;;;;;;12.18;4.70;;;;;;;;;;5044347;28;20033;-80
2021/08/16 10:12:22;;;;;;;10.25;5.15;;;;;;;;;;5024450;28;20049;-80
2021/08/16 10:14:49;;;;;;;11.95;5.03;;;;;;;;;;5029126;28;20037;-79
2021/08/16 10:17:16;;;;;;;8.18;4.70;;;;;;;;;;5023214;28;20037;-80
2021/08/16 10:19:43;;;;;;;14.60;6.20;;;;;;;;;;5024024;28;20048;-79
2021/08/16 10:22:09;;;;;;;19.42;6.75;;;;;;;;;;5010975;28;20034;-79
2021/08/16 10:24:35;;;;;;;11.00;4.97;;;;;;;;;;5022547;28;20049;-80
2021/08/16 10:27:08;;;;;;;11.68;5.10;;;;;;;;;;5020170;28;20029;-79
2021/08/16 10:29:36;;;;;;;10.73;5.25;;;;;;;;;;5027194;28;20045;-80
2021/08/16 10:32:03;;;;;;;10.80;4.95;;;;;;;;;;5024626;28;20056;-79
2021/08/16 10:34:31;;;;;;;9.65;5.13;;;;;;;;;;5019861;28;20084;-80
2021/08/16 10:37:00;;;;;;;11.82;5.70;;;;;;;;;;5024191;28;20037;-80
2021/08/16 10:39:52;;;;;;;12.48;5.40;;;;;;;;;;5021613;28;20036;-80
2021/08/16 10:42:19;;;;;;;12.95;6.05;;;;;;;;;;5020827;28;20045;-79
2021/08/16 10:44:50;;;;;;;11.75;6.15;;;;;;;;;;5025806;28;20041;-80
2021/08/16 10:47:32;;;;;;;11.85;6.18;;;;;;;;;;5033016;28;20061;-79
2021/08/16 10:50:05;;;;;;;10.57;5.78;;;;;;;;;;5027642;28;20464;-79
2021/08/16 10:52:31;;;;;;;10.57;6.22;;;;;;;;;;5028111;28;20026;-80
2021/08/16 10:55:26;;;;;;;13.20;6.45;;;;;;;;;;5029673;28;20040;-80
2021/08/16 10:57:54;;;;;;;19.88;7.43;;;;;;;;;;5036530;28;20037;-80
2021/08/16 11:00:19;;;;;;;13.50;6.05;;;;;;;;;;5028325;28;21578;-79
2021/08/16 11:02:45;;;;;;;13.82;6.15;;;;;;;;;;5033937;28;20045;-79
2021/08/16 11:05:12;;;;;;;12.25;6.28;;;;;;;;;;5033775;28;20034;-79
2021/08/16 11:07:39;;;;;;;11.32;5.78;;;;;;;;;;5032240;28;20048;-79
2021/08/16 11:10:07;;;;;;;9.55;5.88;;;;;;;;;;5033049;28;20033;-80
2021/08/16 11:12:42;;;;;;;12.77;5.63;;;;;;;;;;5028290;28;20042;-80
2021/08/16 11:15:13;;;;;;;15.50;6.10;;;;;;;;;;5039321;28;20048;-79
2021/08/16 11:17:39;;;;;;;11.63;5.68;;;;;;;;;;5031757;28;20137;-80
2021/08/16 11:20:07;;;;;;;9.85;5.80;;;;;;;;;;5033606;28;20067;-80
2021/08/16 11:22:33;;;;;;;10.82;5.63;;;;;;;;;;5017056;28;20060;-80
2021/08/16 11:25:06;;;;;;;12.27;5.15;;;;;;;;;;5029617;28;20410;-80
2021/08/16 11:27:31;;;;;;;11.02;5.13;;;;;;;;;;5029464;28;20068;-79
2021/08/16 11:30:06;;;;;;;12.75;5.50;;;;;;;;;;5030899;28;20037;-79
2021/08/16 11:32:35;;;;;;;11.52;5.40;;;;;;;;;;5032186;28;20029;-80
2021/08/16 11:35:00;;;;;;;10.65;5.55;;;;;;;;;;5031634;28;20689;-79
2021/08/16 11:37:29;;;;;;;13.00;5.68;;;;;;;;;;5016453;28;20025;-79
2021/08/16 11:39:56;;;;;;;13.90;6.00;;;;;;;;;;5027496;28;20042;-79
2021/08/16 11:42:23;;;;;;;14.18;5.93;;;;;;;;;;5031667;28;20038;-80
2021/08/16 11:44:59;;;;;;;13.68;5.53;;;;;;;;;;5013557;28;20143;-79
2021/08/16 11:47:36;;;;;;;11.40;5.60;;;;;;;;;;5028332;28;20063;-80
2021/08/16 11:50:10;;;;;;;9.98;4.97;;;;;;;;;;5033149;28;20136;-79
2021/08/16 11:52:36;;;;;;;12.70;5.18;;;;;;;;;;5026115;28;20037;-79
2021/08/16 11:55:06;;;;;;;8.85;4.65;;;;;;;;;;5027682;28;20369;-80
2021/08/16 11:57:33;;;;;;;10.20;4.13;;;;;;;;;;5029455;28;20040;-80
2021/08/16 11:59:59;;;;;;;10.23;3.72;;;;;;;;;;5026846;28;20035;-79
2021/08/16 12:02:27;;;;;;;7.60;3.60;;;;;;;;;;5023537;28;20033;-78
2021/08/16 12:04:56;;;;;;;10.75;4.10;;;;;;;;;;5029352;28;20443;-79
2021/08/16 12:07:24;;;;;;;7.80;4.18;;;;;;;;;;5028270;28;20061;-79
2021/08/16 12:09:51;;;;;;;7.90;3.72;;;;;;;;;;5027713;28;20113;-79
2021/08/16 12:12:22;;;;;;;6.53;3.28;;;;;;;;;;5028475;28;20083;-79
2021/08/16 12:15:03;;;;;;;5.95;3.15;;;;;;;;;;5027232;28;20025;-79
2021/08/16 12:17:28;;;;;;;7.97;3.20;;;;;;;;;;5029981;28;20029;-79
2021/08/16 12:20:12;;;;;;;7.15;3.35;;;;;;;;;;5013294;28;20503;-79
2021/08/16 12:22:57;;;;;;;6.38;3.28;;;;;;;;;;5018945;28;20276;-79
2021/08/16 12:25:24;;;;;;;7.55;3.20;;;;;;;;;;5027738;28;20033;-80
2021/08/16 12:27:57;;;;;;;7.28;3.40;;;;;;;;;;5024128;28;20034;-79
2021/08/16 12:30:23;;;;;;;;;;;;;;;;;;5029230;28;20069;-79
2021/08/16 12:32:49;;;;;;;8.93;3.42;;;;;;;;;;5029769;28;19956;-80
2021/08/16 12:35:16;;;;;;;5.65;3.33;;;;;;;;;;5027679;28;20033;-79
2021/08/16 12:37:42;;;;;;;8.27;3.85;;;;;;;;;;5022882;28;20037;-79
2021/08/16 12:40:14;;;;;;;7.80;3.65;;;;;;;;;;5026415;28;20048;-79
2021/08/16 12:42:44;;;;;;;7.28;3.25;;;;;;;;;;5023686;28;20192;-80
2021/08/16 12:45:12;;;;;;;8.45;2.75;;;;;;;;;;5009060;28;20037;-79
2021/08/16 12:47:38;;;;;;;6.60;2.33;;;;;;;;;;5024608;28;20037;-79
2021/08/16 12:50:07;;;;;;;6.25;2.63;;;;;;;;;;5027754;28;20036;-79
2021/08/16 12:52:33;;;;;;;8.60;2.20;;;;;;;;;;5020962;28;20363;-79
2021/08/16 12:54:58;;;;;;;6.47;2.10;;;;;;;;;;5025562;28;20037;-79
2021/08/16 12:57:24;;;;;;;7.07;2.20;;;;;;;;;;5027732;28;20345;-79
2021/08/16 12:59:49;;;;;;;6.55;2.30;;;;;;;;;;5022227;28;20041;-79
2021/08/16 13:02:26;;;;;;;7.18;2.15;;;;;;;;;;5030972;28;20371;-80
2021/08/16 13:04:53;;;;;;;6.97;2.15;;;;;;;;;;5029459;28;20116;-80
2021/08/16 13:07:20;;;;;;;7.28;2.30;;;;;;;;;;5028240;28;20044;-79
2021/08/16 13:09:45;;;;;;;7.60;2.33;;;;;;;;;;5034303;28;20036;-79
2021/08/16 13:12:11;;;;;;;8.90;2.28;;;;;;;;;;5026414;28;20811;-79
2021/08/16 13:14:36;;;;;;;6.75;2.65;;;;;;;;;;5029791;28;20438;-79
2021/08/16 13:17:02;;;;;;;9.55;2.40;;;;;;;;;;5017887;28;20148;-79
2021/08/16 13:19:28;;;;;;;8.05;2.60;;;;;;;;;;5027306;28;20109;-79
2021/08/16 13:21:53;;;;;;;8.55;2.35;;;;;;;;;;5032149;28;20040;-79
2021/08/16 13:24:18;;;;;;;9.77;2.90;;;;;;;;;;5021588;28;20498;-81
2021/08/16 13:26:44;;;;;;;10.40;2.95;;;;;;;;;;5030802;28;20468;-80
2021/08/16 13:29:11;;;;;;;9.18;3.40;;;;;;;;;;5028420;28;20029;-79
2021/08/16 13:31:37;;;;;;;8.95;3.35;;;;;;;;;;5032857;28;20353;-79
2021/08/16 13:34:03;;;;;;;8.70;2.97;;;;;;;;;;5031641;28;20025;-79
2021/08/16 13:36:28;;;;;;;9.30;2.47;;;;;;;;;;5031843;28;20495;-79
2021/08/16 13:38:54;;;;;;;9.45;2.55;;;;;;;;;;5015947;28;20499;-79
2021/08/16 13:41:19;;;;;;;9.07;2.78;;;;;;;;;;5030117;28;20115;-78
2021/08/16 13:43:45;;;;;;;7.50;2.13;;;;;;;;;;5018587;28;20045;-79
2021/08/16 13:46:10;;;;;;;11.10;2.63;;;;;;;;;;5028904;28;20519;-79
2021/08/16 13:48:36;;;;;;;8.07;2.53;;;;;;;;;;5021867;28;20033;-79
2021/08/16 13:51:01;;;;;;;8.50;2.30;;;;;;;;;;5029838;28;20029;-79
2021/08/16 13:53:29;;;;;;;9.20;2.03;;;;;;;;;;5011728;28;20030;-79
2021/08/16 13:55:54;;;;;;;7.30;2.28;;;;;;;;;;5028694;28;20037;-79
2021/08/16 13:58:20;;;;;;;8.80;2.00;;;;;;;;;;5036991;28;20039;-79
2021/08/16 14:00:45;;;;;;;6.97;1.98;;;;;;;;;;5028540;28;20048;-79
2021/08/16 14:03:11;;;;;;;12.40;2.30;;;;;;;;;;5029493;28;20033;-79
2021/08/16 14:05:36;;;;;;;9.82;2.30;;;;;;;;;;5027705;28;20061;-79
2021/08/16 14:08:02;;;;;;;12.55;2.42;;;;;;;;;;5047763;28;20494;-79
2021/08/16 14:10:27;;;;;;;8.93;2.33;;;;;;;;;;5033445;28;20488;-79
2021/08/16 14:12:53;;;;;;;8.63;2.50;;;;;;;;;;5023744;28;20070;-79
2021/08/16 14:15:18;;;;;;;8.80;2.53;;;;;;;;;;5023913;28;20037;-79
2021/08/16 14:17:44;;;;;;;8.57;2.83;;;;;;;;;;5012974;28;20068;-80
2021/08/16 14:20:10;;;;;;;9.13;2.65;;;;;;;;;;5031874;28;20073;-79
2021/08/16 14:22:37;;;;;;;12.45;2.95;;;;;;;;;;5031812;28;20031;-79
2021/08/16 14:25:07;;;;;;;10.70;3.10;;;;;;;;;;5027039;28;20021;-79
2021/08/16 14:27:33;;;;;;;8.50;2.45;;;;;;;;;;5032527;28;20087;-79
2021/08/16 14:29:58;;;;;;;11.38;2.70;;;;;;;;;;5031636;28;20085;-79
2021/08/16 14:32:24;;;;;;;8.48;2.50;;;;;;;;;;5013780;28;20138;-79